sensor_id;sensor_type;location;lat;lon;timestamp;temperature;humidity
19781;DHT22;10050;55.492;13.506;2022-08-01T00:01:16;17.90;99.90
19781;DHT22;10050;55.492;13.506;2022-08-01T00:03:41;17.80;99.90
19781;DHT22;10050;55.492;13.506;2022-08-01T00:06:07;17.90;99.90
19781;DHT22;10050;55.492;13.506;2022-08-01T00:08:33;17.80;99.90
19781;DHT22;10050;55.492;13.506;2022-08-01T00:10:58;17.80;99.90
19781;DHT22;10050;55.492;13.506;2022-08-01T00:13:24;17.80;99.90
19781;DHT22;10050;55.492;13.506;2022-08-01T00:15:50;17.80;99.90
19781;DHT22;10050;55.492;13.506;2022-08-01T00:18:15;17.80;99.90
19781;DHT22;10050;55.492;13.506;2022-08-01T00:20:41;17.80;99.90
19781;DHT22;10050;55.492;13.506;2022-08-01T00:23:06;17.80;99.90
19781;DHT22;10050;55.492;13.506;2022-08-01T00:25:32;17.80;99.90
19781;DHT22;10050;55.492;13.506;2022-08-01T00:27:57;17.80;99.90
19781;DHT22;10050;55.492;13.506;2022-08-01T00:30:23;17.90;99.90
19781;DHT22;10050;55.492;13.506;2022-08-01T00:32:49;17.80;99.90
19781;DHT22;10050;55.492;13.506;2022-08-01T00:35:14;17.80;99.90
19781;DHT22;10050;55.492;13.506;2022-08-01T00:37:40;17.80;99.90
19781;DHT22;10050;55.492;13.506;2022-08-01T00:40:06;17.80;99.90
19781;DHT22;10050;55.492;13.506;2022-08-01T00:42:32;17.80;99.90
19781;DHT22;10050;55.492;13.506;2022-08-01T00:44:58;17.70;99.90
19781;DHT22;10050;55.492;13.506;2022-08-01T00:47:23;17.70;99.90
19781;DHT22;10050;55.492;13.506;2022-08-01T00:49:49;17.70;99.90
19781;DHT22;10050;55.492;13.506;2022-08-01T00:52:15;17.70;99.90
19781;DHT22;10050;55.492;13.506;2022-08-01T00:54:41;17.60;99.90
19781;DHT22;10050;55.492;13.506;2022-08-01T00:57:07;17.50;99.90
19781;DHT22;10050;55.492;13.506;2022-08-01T00:59:33;17.50;99.90
19781;DHT22;10050;55.492;13.506;2022-08-01T01:01:59;17.60;99.90
19781;DHT22;10050;55.492;13.506;2022-08-01T01:04:25;17.60;99.90
19781;DHT22;10050;55.492;13.506;2022-08-01T01:07:10;17.60;99.90
19781;DHT22;10050;55.492;13.506;2022-08-01T01:09:44;17.60;99.90
19781;DHT22;10050;55.492;13.506;2022-08-01T01:15:06;17.60;99.90
19781;DHT22;10050;55.492;13.506;2022-08-01T01:17:46;17.60;99.90
19781;DHT22;10050;55.492;13.506;2022-08-01T01:20:14;17.60;99.90
19781;DHT22;10050;55.492;13.506;2022-08-01T01:22:56;17.60;99.90
19781;DHT22;10050;55.492;13.506;2022-08-01T01:25:41;17.70;99.90
19781;DHT22;10050;55.492;13.506;2022-08-01T01:30:46;17.70;99.90
19781;DHT22;10050;55.492;13.506;2022-08-01T01:33:14;17.70;99.90
19781;DHT22;10050;55.492;13.506;2022-08-01T01:35:53;17.70;99.90
19781;DHT22;10050;55.492;13.506;2022-08-01T01:38:25;17.70;99.90
19781;DHT22;10050;55.492;13.506;2022-08-01T01:40:53;17.70;99.90
19781;DHT22;10050;55.492;13.506;2022-08-01T01:43:19;17.70;99.90
19781;DHT22;10050;55.492;13.506;2022-08-01T01:45:47;17.70;99.90
19781;DHT22;10050;55.492;13.506;2022-08-01T01:48:17;17.60;99.90
19781;DHT22;10050;55.492;13.506;2022-08-01T01:50:45;17.60;99.90
19781;DHT22;10050;55.492;13.506;2022-08-01T01:53:13;17.60;99.90
19781;DHT22;10050;55.492;13.506;2022-08-01T01:55:41;17.60;99.90
19781;DHT22;10050;55.492;13.506;2022-08-01T01:58:12;17.60;99.90
19781;DHT22;10050;55.492;13.506;2022-08-01T02:00:39;17.60;99.90
19781;DHT22;10050;55.492;13.506;2022-08-01T02:03:07;17.60;99.90
19781;DHT22;10050;55.492;13.506;2022-08-01T02:05:35;17.60;99.90
19781;DHT22;10050;55.492;13.506;2022-08-01T02:08:03;17.60;99.90
19781;DHT22;10050;55.492;13.506;2022-08-01T02:10:31;17.60;99.90
19781;DHT22;10050;55.492;13.506;2022-08-01T02:12:59;17.70;99.90
19781;DHT22;10050;55.492;13.506;2022-08-01T02:15:26;17.60;99.90
19781;DHT22;10050;55.492;13.506;2022-08-01T02:17:54;17.60;99.90
19781;DHT22;10050;55.492;13.506;2022-08-01T02:20:20;17.60;99.90
19781;DHT22;10050;55.492;13.506;2022-08-01T02:23:18;17.60;99.90
19781;DHT22;10050;55.492;13.506;2022-08-01T02:25:49;17.60;99.90
19781;DHT22;10050;55.492;13.506;2022-08-01T02:28:22;17.60;99.90
19781;DHT22;10050;55.492;13.506;2022-08-01T02:30:54;17.60;99.90
19781;DHT22;10050;55.492;13.506;2022-08-01T02:33:24;17.70;99.90
19781;DHT22;10050;55.492;13.506;2022-08-01T02:35:56;17.60;99.90
19781;DHT22;10050;55.492;13.506;2022-08-01T02:38:26;17.60;99.90
19781;DHT22;10050;55.492;13.506;2022-08-01T02:40:54;17.60;99.90
19781;DHT22;10050;55.492;13.506;2022-08-01T02:43:26;17.60;99.90
19781;DHT22;10050;55.492;13.506;2022-08-01T02:45:56;17.60;99.90
19781;DHT22;10050;55.492;13.506;2022-08-01T02:48:24;17.60;99.90
19781;DHT22;10050;55.492;13.506;2022-08-01T02:50:53;17.60;99.90
19781;DHT22;10050;55.492;13.506;2022-08-01T02:53:21;17.60;99.90
19781;DHT22;10050;55.492;13.506;2022-08-01T02:55:47;17.60;99.90
19781;DHT22;10050;55.492;13.506;2022-08-01T02:58:18;17.60;99.90
19781;DHT22;10050;55.492;13.506;2022-08-01T03:00:45;17.70;99.90
19781;DHT22;10050;55.492;13.506;2022-08-01T03:03:12;17.60;99.90
19781;DHT22;10050;55.492;13.506;2022-08-01T03:05:39;17.60;99.90
19781;DHT22;10050;55.492;13.506;2022-08-01T03:08:08;17.70;99.90
19781;DHT22;10050;55.492;13.506;2022-08-01T03:10:36;17.70;99.90
19781;DHT22;10050;55.492;13.506;2022-08-01T03:13:04;17.70;99.90
19781;DHT22;10050;55.492;13.506;2022-08-01T03:15:32;17.60;99.90
19781;DHT22;10050;55.492;13.506;2022-08-01T03:17:59;17.70;99.90
19781;DHT22;10050;55.492;13.506;2022-08-01T03:20:27;17.60;99.90
19781;DHT22;10050;55.492;13.506;2022-08-01T03:22:54;17.70;99.90
19781;DHT22;10050;55.492;13.506;2022-08-01T03:25:22;17.70;99.90
19781;DHT22;10050;55.492;13.506;2022-08-01T03:27:54;17.70;99.90
19781;DHT22;10050;55.492;13.506;2022-08-01T03:30:22;17.70;99.90
19781;DHT22;10050;55.492;13.506;2022-08-01T03:32:48;17.70;99.90
19781;DHT22;10050;55.492;13.506;2022-08-01T03:35:13;17.70;99.90
19781;DHT22;10050;55.492;13.506;2022-08-01T03:37:47;17.70;99.90
19781;DHT22;10050;55.492;13.506;2022-08-01T03:40:24;17.70;99.90
19781;DHT22;10050;55.492;13.506;2022-08-01T03:42:56;17.70;99.90
19781;DHT22;10050;55.492;13.506;2022-08-01T03:45:25;17.70;99.90
19781;DHT22;10050;55.492;13.506;2022-08-01T03:47:59;17.70;99.90
19781;DHT22;10050;55.492;13.506;2022-08-01T03:50:27;17.70;99.90
19781;DHT22;10050;55.492;13.506;2022-08-01T03:52:54;17.70;99.90
19781;DHT22;10050;55.492;13.506;2022-08-01T03:55:23;17.80;99.90
19781;DHT22;10050;55.492;13.506;2022-08-01T03:57:50;17.80;99.90
19781;DHT22;10050;55.492;13.506;2022-08-01T04:00:16;17.80;99.90
19781;DHT22;10050;55.492;13.506;2022-08-01T04:02:47;17.80;99.90
19781;DHT22;10050;55.492;13.506;2022-08-01T04:05:14;17.80;99.90
19781;DHT22;10050;55.492;13.506;2022-08-01T04:07:45;17.80;99.90
19781;DHT22;10050;55.492;13.506;2022-08-01T04:10:12;17.80;99.90
19781;DHT22;10050;55.492;13.506;2022-08-01T04:12:38;17.80;99.90
19781;DHT22;10050;55.492;13.506;2022-08-01T04:15:04;17.90;99.90
19781;DHT22;10050;55.492;13.506;2022-08-01T04:17:30;18.00;99.90
19781;DHT22;10050;55.492;13.506;2022-08-01T04:19:56;18.00;99.90
19781;DHT22;10050;55.492;13.506;2022-08-01T04:22:22;18.10;99.90
19781;DHT22;10050;55.492;13.506;2022-08-01T04:24:50;18.20;99.90
19781;DHT22;10050;55.492;13.506;2022-08-01T04:27:23;18.30;99.90
19781;DHT22;10050;55.492;13.506;2022-08-01T04:29:51;18.40;99.90
19781;DHT22;10050;55.492;13.506;2022-08-01T04:32:20;18.50;99.90
19781;DHT22;10050;55.492;13.506;2022-08-01T04:34:47;18.60;99.90
19781;DHT22;10050;55.492;13.506;2022-08-01T04:37:15;18.60;99.90
19781;DHT22;10050;55.492;13.506;2022-08-01T04:39:42;18.70;99.90
19781;DHT22;10050;55.492;13.506;2022-08-01T04:42:10;18.70;99.90
19781;DHT22;10050;55.492;13.506;2022-08-01T04:44:36;18.70;99.90
19781;DHT22;10050;55.492;13.506;2022-08-01T04:47:03;18.70;99.90
19781;DHT22;10050;55.492;13.506;2022-08-01T04:49:34;18.60;99.90
19781;DHT22;10050;55.492;13.506;2022-08-01T04:51:59;18.60;99.90
19781;DHT22;10050;55.492;13.506;2022-08-01T04:54:30;18.70;99.90
19781;DHT22;10050;55.492;13.506;2022-08-01T04:56:59;18.70;99.90
19781;DHT22;10050;55.492;13.506;2022-08-01T04:59:28;18.70;99.90
19781;DHT22;10050;55.492;13.506;2022-08-01T05:02:18;18.80;99.90
19781;DHT22;10050;55.492;13.506;2022-08-01T05:04:45;18.80;99.90
19781;DHT22;10050;55.492;13.506;2022-08-01T05:07:12;18.80;99.90
19781;DHT22;10050;55.492;13.506;2022-08-01T05:09:38;18.90;99.90
19781;DHT22;10050;55.492;13.506;2022-08-01T05:12:07;18.90;99.90
19781;DHT22;10050;55.492;13.506;2022-08-01T05:14:33;18.90;99.90
19781;DHT22;10050;55.492;13.506;2022-08-01T05:16:59;19.00;99.90
19781;DHT22;10050;55.492;13.506;2022-08-01T05:19:29;19.00;99.90
19781;DHT22;10050;55.492;13.506;2022-08-01T05:21:56;19.00;99.90
19781;DHT22;10050;55.492;13.506;2022-08-01T05:24:21;19.10;99.90
19781;DHT22;10050;55.492;13.506;2022-08-01T05:26:48;19.00;99.90
19781;DHT22;10050;55.492;13.506;2022-08-01T05:29:15;19.10;99.90
19781;DHT22;10050;55.492;13.506;2022-08-01T05:31:40;19.10;99.90
19781;DHT22;10050;55.492;13.506;2022-08-01T05:34:06;19.10;99.90
19781;DHT22;10050;55.492;13.506;2022-08-01T05:36:32;19.10;99.90
19781;DHT22;10050;55.492;13.506;2022-08-01T05:38:57;19.10;99.90
19781;DHT22;10050;55.492;13.506;2022-08-01T05:41:23;19.10;99.90
19781;DHT22;10050;55.492;13.506;2022-08-01T05:43:49;19.00;99.90
19781;DHT22;10050;55.492;13.506;2022-08-01T05:46:14;19.00;99.90
19781;DHT22;10050;55.492;13.506;2022-08-01T05:48:40;19.10;99.90
19781;DHT22;10050;55.492;13.506;2022-08-01T05:51:06;19.20;99.90
19781;DHT22;10050;55.492;13.506;2022-08-01T05:53:31;19.20;99.90
19781;DHT22;10050;55.492;13.506;2022-08-01T05:55:59;19.20;99.90
19781;DHT22;10050;55.492;13.506;2022-08-01T05:58:26;19.20;99.90
19781;DHT22;10050;55.492;13.506;2022-08-01T06:00:51;19.20;99.90
19781;DHT22;10050;55.492;13.506;2022-08-01T06:03:17;19.20;99.90
19781;DHT22;10050;55.492;13.506;2022-08-01T06:05:43;19.30;99.90
19781;DHT22;10050;55.492;13.506;2022-08-01T06:08:08;19.40;99.90
19781;DHT22;10050;55.492;13.506;2022-08-01T06:10:34;19.50;99.90
19781;DHT22;10050;55.492;13.506;2022-08-01T06:13:00;19.50;99.90
19781;DHT22;10050;55.492;13.506;2022-08-01T06:15:29;19.50;99.90
19781;DHT22;10050;55.492;13.506;2022-08-01T06:17:55;19.60;99.90
19781;DHT22;10050;55.492;13.506;2022-08-01T06:20:21;19.50;99.90
19781;DHT22;10050;55.492;13.506;2022-08-01T06:22:46;19.60;99.90
19781;DHT22;10050;55.492;13.506;2022-08-01T06:25:12;19.60;99.90
19781;DHT22;10050;55.492;13.506;2022-08-01T06:27:37;19.60;99.90
19781;DHT22;10050;55.492;13.506;2022-08-01T06:30:04;19.60;99.90
19781;DHT22;10050;55.492;13.506;2022-08-01T06:32:30;19.60;99.90
19781;DHT22;10050;55.492;13.506;2022-08-01T06:34:56;19.70;99.90
19781;DHT22;10050;55.492;13.506;2022-08-01T06:37:23;19.70;99.90
19781;DHT22;10050;55.492;13.506;2022-08-01T06:39:48;19.80;99.90
19781;DHT22;10050;55.492;13.506;2022-08-01T06:42:14;19.90;99.90
19781;DHT22;10050;55.492;13.506;2022-08-01T06:44:40;20.00;99.90
19781;DHT22;10050;55.492;13.506;2022-08-01T06:47:06;20.00;99.90
19781;DHT22;10050;55.492;13.506;2022-08-01T06:49:32;20.10;99.90
19781;DHT22;10050;55.492;13.506;2022-08-01T06:51:57;20.10;99.90
19781;DHT22;10050;55.492;13.506;2022-08-01T06:54:23;20.10;99.90
19781;DHT22;10050;55.492;13.506;2022-08-01T06:56:49;20.10;99.90
19781;DHT22;10050;55.492;13.506;2022-08-01T06:59:14;20.30;99.90
19781;DHT22;10050;55.492;13.506;2022-08-01T07:01:40;20.20;99.90
19781;DHT22;10050;55.492;13.506;2022-08-01T07:04:06;20.20;99.90
19781;DHT22;10050;55.492;13.506;2022-08-01T07:06:32;20.20;99.90
19781;DHT22;10050;55.492;13.506;2022-08-01T07:08:58;20.30;99.90
19781;DHT22;10050;55.492;13.506;2022-08-01T07:11:24;20.30;99.90
19781;DHT22;10050;55.492;13.506;2022-08-01T07:13:49;20.40;99.90
19781;DHT22;10050;55.492;13.506;2022-08-01T07:16:15;20.40;99.90
19781;DHT22;10050;55.492;13.506;2022-08-01T07:18:41;20.50;99.90
19781;DHT22;10050;55.492;13.506;2022-08-01T07:21:07;20.50;99.90
19781;DHT22;10050;55.492;13.506;2022-08-01T07:23:33;20.60;99.90
19781;DHT22;10050;55.492;13.506;2022-08-01T07:25:59;20.70;99.90
19781;DHT22;10050;55.492;13.506;2022-08-01T07:28:27;20.70;99.90
19781;DHT22;10050;55.492;13.506;2022-08-01T07:30:52;20.80;99.90
19781;DHT22;10050;55.492;13.506;2022-08-01T07:33:18;20.80;99.90
19781;DHT22;10050;55.492;13.506;2022-08-01T07:35:44;20.80;99.90
19781;DHT22;10050;55.492;13.506;2022-08-01T07:38:09;20.90;99.90
19781;DHT22;10050;55.492;13.506;2022-08-01T07:40:35;20.90;99.90
19781;DHT22;10050;55.492;13.506;2022-08-01T07:43:01;20.90;99.90
19781;DHT22;10050;55.492;13.506;2022-08-01T07:45:26;20.90;99.90
19781;DHT22;10050;55.492;13.506;2022-08-01T07:47:52;20.90;99.90
19781;DHT22;10050;55.492;13.506;2022-08-01T07:50:18;20.90;99.90
19781;DHT22;10050;55.492;13.506;2022-08-01T07:52:44;21.00;99.90
19781;DHT22;10050;55.492;13.506;2022-08-01T07:55:11;21.00;99.90
19781;DHT22;10050;55.492;13.506;2022-08-01T07:57:37;21.00;99.90
19781;DHT22;10050;55.492;13.506;2022-08-01T08:00:07;21.00;99.90
19781;DHT22;10050;55.492;13.506;2022-08-01T08:02:34;21.00;99.90
19781;DHT22;10050;55.492;13.506;2022-08-01T08:04:59;20.90;99.90
19781;DHT22;10050;55.492;13.506;2022-08-01T08:07:25;20.80;99.90
19781;DHT22;10050;55.492;13.506;2022-08-01T08:09:51;20.90;99.90
19781;DHT22;10050;55.492;13.506;2022-08-01T08:12:16;20.90;99.90
19781;DHT22;10050;55.492;13.506;2022-08-01T08:14:42;21.00;99.90
19781;DHT22;10050;55.492;13.506;2022-08-01T08:17:07;21.10;99.90
19781;DHT22;10050;55.492;13.506;2022-08-01T08:19:33;21.20;99.90
19781;DHT22;10050;55.492;13.506;2022-08-01T08:22:00;21.20;99.90
19781;DHT22;10050;55.492;13.506;2022-08-01T08:24:26;21.10;99.90
19781;DHT22;10050;55.492;13.506;2022-08-01T08:26:57;21.20;99.90
19781;DHT22;10050;55.492;13.506;2022-08-01T08:29:24;21.20;99.90
19781;DHT22;10050;55.492;13.506;2022-08-01T08:31:52;21.20;99.90
19781;DHT22;10050;55.492;13.506;2022-08-01T08:34:19;21.30;99.90
19781;DHT22;10050;55.492;13.506;2022-08-01T08:36:44;21.30;99.90
19781;DHT22;10050;55.492;13.506;2022-08-01T08:39:10;21.30;99.90
19781;DHT22;10050;55.492;13.506;2022-08-01T08:41:36;21.10;99.90
19781;DHT22;10050;55.492;13.506;2022-08-01T08:44:06;20.90;99.90
19781;DHT22;10050;55.492;13.506;2022-08-01T08:46:33;20.90;99.90
19781;DHT22;10050;55.492;13.506;2022-08-01T08:49:00;20.70;99.90
19781;DHT22;10050;55.492;13.506;2022-08-01T08:51:28;20.60;99.90
19781;DHT22;10050;55.492;13.506;2022-08-01T08:53:56;20.60;99.90
19781;DHT22;10050;55.492;13.506;2022-08-01T08:56:24;20.70;99.90
19781;DHT22;10050;55.492;13.506;2022-08-01T08:58:51;20.70;99.90
19781;DHT22;10050;55.492;13.506;2022-08-01T09:01:17;20.70;99.90
19781;DHT22;10050;55.492;13.506;2022-08-01T09:03:43;20.60;99.90
19781;DHT22;10050;55.492;13.506;2022-08-01T09:06:10;20.50;99.90
19781;DHT22;10050;55.492;13.506;2022-08-01T09:08:36;20.50;99.90
19781;DHT22;10050;55.492;13.506;2022-08-01T09:11:03;20.50;99.90
19781;DHT22;10050;55.492;13.506;2022-08-01T09:13:28;20.50;99.90
19781;DHT22;10050;55.492;13.506;2022-08-01T09:15:55;20.60;99.90
19781;DHT22;10050;55.492;13.506;2022-08-01T09:18:30;20.60;99.90
19781;DHT22;10050;55.492;13.506;2022-08-01T09:21:18;20.60;99.90
19781;DHT22;10050;55.492;13.506;2022-08-01T09:23:55;20.60;99.90
19781;DHT22;10050;55.492;13.506;2022-08-01T09:26:32;20.40;99.90
19781;DHT22;10050;55.492;13.506;2022-08-01T09:28:58;20.50;99.90
19781;DHT22;10050;55.492;13.506;2022-08-01T09:31:28;20.60;99.90
19781;DHT22;10050;55.492;13.506;2022-08-01T09:33:58;20.60;99.90
19781;DHT22;10050;55.492;13.506;2022-08-01T09:36:42;20.60;99.90
19781;DHT22;10050;55.492;13.506;2022-08-01T09:39:15;20.50;99.90
19781;DHT22;10050;55.492;13.506;2022-08-01T09:41:41;20.60;99.90
19781;DHT22;10050;55.492;13.506;2022-08-01T09:44:06;20.60;99.90
19781;DHT22;10050;55.492;13.506;2022-08-01T09:46:32;20.70;99.90
19781;DHT22;10050;55.492;13.506;2022-08-01T09:49:00;20.70;99.90
19781;DHT22;10050;55.492;13.506;2022-08-01T09:51:36;20.80;99.90
19781;DHT22;10050;55.492;13.506;2022-08-01T09:54:03;20.90;99.90
19781;DHT22;10050;55.492;13.506;2022-08-01T09:56:41;21.00;99.90
19781;DHT22;10050;55.492;13.506;2022-08-01T09:59:11;21.00;99.90
19781;DHT22;10050;55.492;13.506;2022-08-01T10:01:47;20.90;99.90
19781;DHT22;10050;55.492;13.506;2022-08-01T10:04:17;20.80;99.90
19781;DHT22;10050;55.492;13.506;2022-08-01T10:06:44;20.70;99.90
19781;DHT22;10050;55.492;13.506;2022-08-01T10:09:14;20.80;99.90
19781;DHT22;10050;55.492;13.506;2022-08-01T10:11:42;20.80;99.90
19781;DHT22;10050;55.492;13.506;2022-08-01T10:14:08;20.70;99.90
19781;DHT22;10050;55.492;13.506;2022-08-01T10:16:35;20.70;99.90
19781;DHT22;10050;55.492;13.506;2022-08-01T10:19:04;20.50;99.90
19781;DHT22;10050;55.492;13.506;2022-08-01T10:21:32;20.40;99.90
19781;DHT22;10050;55.492;13.506;2022-08-01T10:24:01;20.30;99.90
19781;DHT22;10050;55.492;13.506;2022-08-01T10:26:29;20.30;99.90
19781;DHT22;10050;55.492;13.506;2022-08-01T10:28:57;20.40;99.90
19781;DHT22;10050;55.492;13.506;2022-08-01T10:31:23;20.40;99.90
19781;DHT22;10050;55.492;13.506;2022-08-01T10:33:50;20.50;99.90
19781;DHT22;10050;55.492;13.506;2022-08-01T10:36:19;20.40;99.90
19781;DHT22;10050;55.492;13.506;2022-08-01T10:38:46;20.40;99.90
19781;DHT22;10050;55.492;13.506;2022-08-01T10:41:13;20.40;99.90
19781;DHT22;10050;55.492;13.506;2022-08-01T10:43:40;20.50;99.90
19781;DHT22;10050;55.492;13.506;2022-08-01T10:46:06;20.70;99.90
19781;DHT22;10050;55.492;13.506;2022-08-01T10:48:44;20.80;99.90
19781;DHT22;10050;55.492;13.506;2022-08-01T10:51:12;20.60;99.90
19781;DHT22;10050;55.492;13.506;2022-08-01T10:53:47;20.40;99.90
19781;DHT22;10050;55.492;13.506;2022-08-01T10:56:13;20.40;99.90
19781;DHT22;10050;55.492;13.506;2022-08-01T10:58:42;20.40;99.90
19781;DHT22;10050;55.492;13.506;2022-08-01T11:01:29;20.40;99.90
19781;DHT22;10050;55.492;13.506;2022-08-01T11:14:25;20.90;99.90
19781;DHT22;10050;55.492;13.506;2022-08-01T11:16:51;21.10;99.90
19781;DHT22;10050;55.492;13.506;2022-08-01T11:19:17;21.10;99.90
19781;DHT22;10050;55.492;13.506;2022-08-01T11:32:54;21.60;99.90
19781;DHT22;10050;55.492;13.506;2022-08-01T11:35:24;21.60;99.90
19781;DHT22;10050;55.492;13.506;2022-08-01T11:37:53;21.60;99.90
19781;DHT22;10050;55.492;13.506;2022-08-01T11:40:24;21.50;99.90
19781;DHT22;10050;55.492;13.506;2022-08-01T11:45:52;21.50;99.90
19781;DHT22;10050;55.492;13.506;2022-08-01T11:48:21;21.40;99.90
19781;DHT22;10050;55.492;13.506;2022-08-01T11:50:49;21.40;99.90
19781;DHT22;10050;55.492;13.506;2022-08-01T11:53:15;21.50;99.90
19781;DHT22;10050;55.492;13.506;2022-08-01T11:55:46;22.00;99.90
19781;DHT22;10050;55.492;13.506;2022-08-01T11:58:12;22.40;99.90
19781;DHT22;10050;55.492;13.506;2022-08-01T12:00:38;22.60;99.90
19781;DHT22;10050;55.492;13.506;2022-08-01T12:03:06;22.50;99.90
19781;DHT22;10050;55.492;13.506;2022-08-01T12:05:34;22.40;99.90
19781;DHT22;10050;55.492;13.506;2022-08-01T12:08:03;22.10;99.90
19781;DHT22;10050;55.492;13.506;2022-08-01T12:10:33;21.70;99.90
19781;DHT22;10050;55.492;13.506;2022-08-01T12:13:04;21.60;99.90
19781;DHT22;10050;55.492;13.506;2022-08-01T12:15:32;21.70;99.90
19781;DHT22;10050;55.492;13.506;2022-08-01T12:18:00;21.80;99.90
19781;DHT22;10050;55.492;13.506;2022-08-01T12:20:38;22.00;99.90
19781;DHT22;10050;55.492;13.506;2022-08-01T12:23:06;22.10;99.90
19781;DHT22;10050;55.492;13.506;2022-08-01T12:25:33;22.10;99.90
19781;DHT22;10050;55.492;13.506;2022-08-01T12:28:03;22.00;99.90
19781;DHT22;10050;55.492;13.506;2022-08-01T12:30:30;21.80;99.90
19781;DHT22;10050;55.492;13.506;2022-08-01T12:32:57;21.70;99.90
19781;DHT22;10050;55.492;13.506;2022-08-01T12:35:24;21.40;99.90
19781;DHT22;10050;55.492;13.506;2022-08-01T12:37:53;21.00;99.90
19781;DHT22;10050;55.492;13.506;2022-08-01T12:40:21;20.90;99.90
19781;DHT22;10050;55.492;13.506;2022-08-01T12:42:50;20.80;99.90
19781;DHT22;10050;55.492;13.506;2022-08-01T12:45:37;20.80;99.90
19781;DHT22;10050;55.492;13.506;2022-08-01T12:48:09;20.80;99.90
19781;DHT22;10050;55.492;13.506;2022-08-01T12:50:41;20.80;99.90
19781;DHT22;10050;55.492;13.506;2022-08-01T12:53:08;20.80;99.90
19781;DHT22;10050;55.492;13.506;2022-08-01T12:55:47;20.80;99.90
19781;DHT22;10050;55.492;13.506;2022-08-01T12:58:14;20.60;99.90
19781;DHT22;10050;55.492;13.506;2022-08-01T13:00:41;20.50;99.90
19781;DHT22;10050;55.492;13.506;2022-08-01T13:03:11;20.50;99.90
19781;DHT22;10050;55.492;13.506;2022-08-01T13:05:51;20.60;99.90
19781;DHT22;10050;55.492;13.506;2022-08-01T13:08:30;20.70;99.90
19781;DHT22;10050;55.492;13.506;2022-08-01T13:11:13;20.70;99.90
19781;DHT22;10050;55.492;13.506;2022-08-01T13:13:50;20.70;99.90
19781;DHT22;10050;55.492;13.506;2022-08-01T13:16:18;20.90;99.90
19781;DHT22;10050;55.492;13.506;2022-08-01T13:18:54;21.10;99.90
19781;DHT22;10050;55.492;13.506;2022-08-01T13:21:25;21.40;99.90
19781;DHT22;10050;55.492;13.506;2022-08-01T13:24:09;21.60;99.90
19781;DHT22;10050;55.492;13.506;2022-08-01T13:26:45;21.90;99.90
19781;DHT22;10050;55.492;13.506;2022-08-01T13:29:13;22.20;99.90
19781;DHT22;10050;55.492;13.506;2022-08-01T13:31:40;22.30;99.90
19781;DHT22;10050;55.492;13.506;2022-08-01T13:34:06;22.60;99.90
19781;DHT22;10050;55.492;13.506;2022-08-01T13:36:32;22.90;99.90
19781;DHT22;10050;55.492;13.506;2022-08-01T13:38:58;23.10;99.90
19781;DHT22;10050;55.492;13.506;2022-08-01T13:41:43;23.20;99.90
19781;DHT22;10050;55.492;13.506;2022-08-01T13:44:08;23.50;99.90
19781;DHT22;10050;55.492;13.506;2022-08-01T13:46:36;23.70;99.90
19781;DHT22;10050;55.492;13.506;2022-08-01T13:49:03;23.80;99.90
19781;DHT22;10050;55.492;13.506;2022-08-01T13:51:29;23.90;99.90
19781;DHT22;10050;55.492;13.506;2022-08-01T13:53:55;24.00;99.90
19781;DHT22;10050;55.492;13.506;2022-08-01T13:56:20;24.00;99.90
19781;DHT22;10050;55.492;13.506;2022-08-01T13:58:46;23.80;99.90
19781;DHT22;10050;55.492;13.506;2022-08-01T14:01:12;23.80;99.90
19781;DHT22;10050;55.492;13.506;2022-08-01T14:03:38;23.80;99.90
19781;DHT22;10050;55.492;13.506;2022-08-01T14:06:03;24.00;99.90
19781;DHT22;10050;55.492;13.506;2022-08-01T14:08:29;24.00;99.90
19781;DHT22;10050;55.492;13.506;2022-08-01T14:10:55;24.00;99.90
19781;DHT22;10050;55.492;13.506;2022-08-01T14:13:24;24.00;99.90
19781;DHT22;10050;55.492;13.506;2022-08-01T14:15:50;24.00;99.90
19781;DHT22;10050;55.492;13.506;2022-08-01T14:18:16;24.00;99.90
19781;DHT22;10050;55.492;13.506;2022-08-01T14:20:42;24.00;99.90
19781;DHT22;10050;55.492;13.506;2022-08-01T14:23:09;23.90;99.90
19781;DHT22;10050;55.492;13.506;2022-08-01T14:25:39;23.80;99.90
19781;DHT22;10050;55.492;13.506;2022-08-01T14:28:05;23.80;99.90
19781;DHT22;10050;55.492;13.506;2022-08-01T14:30:32;23.80;99.90
19781;DHT22;10050;55.492;13.506;2022-08-01T14:32:58;23.80;99.90
19781;DHT22;10050;55.492;13.506;2022-08-01T14:35:24;23.80;99.90
19781;DHT22;10050;55.492;13.506;2022-08-01T14:37:50;23.90;99.90
19781;DHT22;10050;55.492;13.506;2022-08-01T14:40:15;23.90;99.90
19781;DHT22;10050;55.492;13.506;2022-08-01T14:42:41;24.00;99.90
19781;DHT22;10050;55.492;13.506;2022-08-01T14:45:10;24.00;99.90
19781;DHT22;10050;55.492;13.506;2022-08-01T14:47:40;24.10;99.90
19781;DHT22;10050;55.492;13.506;2022-08-01T14:50:08;24.00;99.90
19781;DHT22;10050;55.492;13.506;2022-08-01T14:52:35;23.90;99.90
19781;DHT22;10050;55.492;13.506;2022-08-01T14:55:01;23.90;99.90
19781;DHT22;10050;55.492;13.506;2022-08-01T14:57:27;23.80;99.90
19781;DHT22;10050;55.492;13.506;2022-08-01T14:59:53;23.80;99.90
19781;DHT22;10050;55.492;13.506;2022-08-01T15:02:19;23.90;99.90
19781;DHT22;10050;55.492;13.506;2022-08-01T15:04:45;23.90;99.90
19781;DHT22;10050;55.492;13.506;2022-08-01T15:07:12;23.90;99.90
19781;DHT22;10050;55.492;13.506;2022-08-01T15:09:38;24.00;99.90
19781;DHT22;10050;55.492;13.506;2022-08-01T15:12:03;24.00;99.90
19781;DHT22;10050;55.492;13.506;2022-08-01T15:14:29;23.90;99.90
19781;DHT22;10050;55.492;13.506;2022-08-01T15:17:13;23.90;99.90
19781;DHT22;10050;55.492;13.506;2022-08-01T15:19:39;23.80;99.90
19781;DHT22;10050;55.492;13.506;2022-08-01T15:22:05;23.70;99.90
19781;DHT22;10050;55.492;13.506;2022-08-01T15:24:31;23.80;99.90
19781;DHT22;10050;55.492;13.506;2022-08-01T15:26:56;23.70;99.90
19781;DHT22;10050;55.492;13.506;2022-08-01T15:29:22;23.60;99.90
19781;DHT22;10050;55.492;13.506;2022-08-01T15:31:48;23.50;99.90
19781;DHT22;10050;55.492;13.506;2022-08-01T15:34:13;23.50;99.90
19781;DHT22;10050;55.492;13.506;2022-08-01T15:36:39;23.50;99.90
19781;DHT22;10050;55.492;13.506;2022-08-01T15:39:05;23.60;99.90
19781;DHT22;10050;55.492;13.506;2022-08-01T15:41:30;23.50;99.90
19781;DHT22;10050;55.492;13.506;2022-08-01T15:43:56;23.40;99.90
19781;DHT22;10050;55.492;13.506;2022-08-01T15:46:22;23.40;99.90
19781;DHT22;10050;55.492;13.506;2022-08-01T15:48:48;23.30;99.90
19781;DHT22;10050;55.492;13.506;2022-08-01T15:51:14;23.20;99.90